createdAt,value
2023-04-16T00:02:08.060Z,8.60
2023-04-16T00:04:35.708Z,8.60
2023-04-16T00:07:02.980Z,8.60
2023-04-16T00:09:29.967Z,8.60
2023-04-16T00:11:57.652Z,8.60
2023-04-16T00:14:24.759Z,8.60
2023-04-16T00:16:51.850Z,8.60
2023-04-16T00:19:18.937Z,8.60
2023-04-16T00:21:45.927Z,8.60
2023-04-16T00:24:12.971Z,8.60
2023-04-16T00:26:41.041Z,8.60
2023-04-16T00:29:08.501Z,8.60
2023-04-16T00:31:36.510Z,8.60
2023-04-16T00:34:03.809Z,8.60
2023-04-16T00:36:30.954Z,8.60
2023-04-16T00:38:58.041Z,8.60
2023-04-16T00:41:25.122Z,8.60
2023-04-16T00:43:52.550Z,8.60
2023-04-16T00:46:22.293Z,8.60
2023-04-16T00:48:51.720Z,8.70
2023-04-16T00:51:20.743Z,8.60
2023-04-16T00:53:48.229Z,8.70
2023-04-16T00:56:17.004Z,8.70
2023-04-16T00:58:45.145Z,8.60
2023-04-16T01:01:14.528Z,8.60
2023-04-16T01:03:47.593Z,8.60
2023-04-16T01:06:17.122Z,8.60
2023-04-16T01:08:45.096Z,8.60
2023-04-16T01:11:12.149Z,8.60
2023-04-16T01:13:39.716Z,8.60
2023-04-16T01:16:09.220Z,8.60
2023-04-16T01:18:37.070Z,8.60
2023-04-16T01:21:05.132Z,8.60
2023-04-16T01:23:32.468Z,8.60
2023-04-16T01:25:59.502Z,8.60
2023-04-16T01:28:26.781Z,8.60
2023-04-16T01:30:53.756Z,8.50
2023-04-16T01:33:52.838Z,8.50
2023-04-16T01:36:20.157Z,8.50
2023-04-16T01:38:47.227Z,8.50
2023-04-16T01:41:14.209Z,8.50
2023-04-16T01:43:42.503Z,8.50
2023-04-16T01:46:21.362Z,8.50
2023-04-16T01:48:48.772Z,8.50
2023-04-16T01:51:15.852Z,8.50
2023-04-16T01:53:42.888Z,8.50
2023-04-16T01:56:09.913Z,8.50
2023-04-16T01:58:37.065Z,8.50
2023-04-16T02:01:05.849Z,8.50
2023-04-16T02:03:33.610Z,8.50
2023-04-16T02:06:01.731Z,8.50
2023-04-16T02:08:29.302Z,8.50
2023-04-16T02:10:57.471Z,8.50
2023-04-16T02:13:26.177Z,8.50
2023-04-16T02:15:53.953Z,8.50
2023-04-16T02:18:35.181Z,8.50
2023-04-16T02:21:02.606Z,8.50
2023-04-16T02:23:29.686Z,8.50
2023-04-16T02:25:58.797Z,8.50
2023-04-16T02:28:25.914Z,8.50
2023-04-16T02:30:52.921Z,8.50
2023-04-16T02:33:21.251Z,8.50
2023-04-16T02:35:56.369Z,8.50
2023-04-16T02:38:23.387Z,8.50
2023-04-16T02:40:50.809Z,8.50
2023-04-16T02:43:17.773Z,8.50
2023-04-16T02:45:44.969Z,8.50
2023-04-16T02:48:12.140Z,8.50
2023-04-16T02:50:39.065Z,8.50
2023-04-16T02:53:07.849Z,8.50
2023-04-16T02:55:34.906Z,8.40
2023-04-16T02:58:02.067Z,8.40
2023-04-16T03:00:29.224Z,8.30
2023-04-16T03:02:56.568Z,8.20
2023-04-16T03:05:23.751Z,8.20
2023-04-16T03:07:56.542Z,8.20
2023-04-16T03:10:24.608Z,8.10
2023-04-16T03:12:51.627Z,8.20
2023-04-16T03:15:18.736Z,8.10
2023-04-16T03:17:46.088Z,8.20
2023-04-16T03:20:14.464Z,8.20
2023-04-16T03:22:41.935Z,8.20
2023-04-16T03:25:09.559Z,8.20
2023-04-16T03:27:36.614Z,8.20
2023-04-16T03:30:04.794Z,8.20
2023-04-16T03:32:34.165Z,8.20
2023-04-16T03:35:03.812Z,8.20
2023-04-16T03:37:31.941Z,8.20
2023-04-16T03:39:59.306Z,8.20
2023-04-16T03:42:27.088Z,8.20
2023-04-16T03:44:54.195Z,8.20
2023-04-16T03:47:22.785Z,8.20
2023-04-16T03:49:53.204Z,8.20
2023-04-16T03:52:20.245Z,8.20
2023-04-16T03:54:47.482Z,8.20
2023-04-16T03:57:24.094Z,8.20
2023-04-16T03:59:53.037Z,8.20
2023-04-16T04:02:20.643Z,8.20
2023-04-16T04:04:47.944Z,8.20
2023-04-16T04:07:16.591Z,8.20
2023-04-16T04:09:43.764Z,8.20
2023-04-16T04:12:10.805Z,8.20
2023-04-16T04:14:40.327Z,8.20
2023-04-16T04:17:08.948Z,8.20
2023-04-16T04:19:37.758Z,8.20
2023-04-16T04:22:06.393Z,8.20
2023-04-16T04:24:33.396Z,8.20
2023-04-16T04:27:01.766Z,8.20
2023-04-16T04:29:29.236Z,8.20
2023-04-16T04:31:56.429Z,8.20
2023-04-16T04:34:23.754Z,8.20
2023-04-16T04:36:51.067Z,8.20
2023-04-16T04:39:20.564Z,8.20
2023-04-16T04:41:49.069Z,8.20
2023-04-16T04:44:18.734Z,8.20
2023-04-16T04:46:45.849Z,8.20
2023-04-16T04:49:12.892Z,8.20
2023-04-16T04:51:39.998Z,8.20
2023-04-16T04:54:07.287Z,8.20
2023-04-16T04:56:34.402Z,8.20
2023-04-16T04:59:01.404Z,8.20
2023-04-16T05:01:28.800Z,8.20
2023-04-16T05:03:56.045Z,8.20
2023-04-16T05:06:23.144Z,8.20
2023-04-16T05:08:50.199Z,8.20
2023-04-16T05:11:17.256Z,8.20
2023-04-16T05:13:44.371Z,8.20
2023-04-16T05:16:11.639Z,8.30
2023-04-16T05:18:38.627Z,8.30
2023-04-16T05:21:05.764Z,8.30
2023-04-16T05:23:32.756Z,8.30
2023-04-16T05:25:59.725Z,8.30
2023-04-16T05:28:26.743Z,8.40
2023-04-16T05:30:53.761Z,8.40
2023-04-16T05:33:20.919Z,8.40
2023-04-16T05:35:48.005Z,8.40
2023-04-16T05:38:14.952Z,8.40
2023-04-16T05:40:41.925Z,8.40
2023-04-16T05:43:09.525Z,8.40
2023-04-16T05:45:40.977Z,8.40
2023-04-16T05:48:11.872Z,8.40
2023-04-16T05:50:38.928Z,8.40
2023-04-16T05:53:08.222Z,8.50
2023-04-16T05:55:38.693Z,8.50
2023-04-16T05:58:05.669Z,8.50
2023-04-16T06:00:33.265Z,8.60
2023-04-16T06:03:00.856Z,8.60
2023-04-16T06:05:28.753Z,8.60
2023-04-16T06:07:56.329Z,8.70
2023-04-16T06:10:23.508Z,8.70
2023-04-16T06:12:50.517Z,8.80
2023-04-16T06:15:17.587Z,8.80
2023-04-16T06:17:44.621Z,8.90
2023-04-16T06:20:12.606Z,9.00
2023-04-16T06:22:39.669Z,9.00
2023-04-16T06:25:07.343Z,9.10
2023-04-16T06:27:34.404Z,9.00
2023-04-16T06:30:01.379Z,9.00
2023-04-16T06:32:28.469Z,9.10
2023-04-16T06:34:56.393Z,9.30
2023-04-16T06:37:23.299Z,9.40
2023-04-16T06:39:50.290Z,9.40
2023-04-16T06:42:17.932Z,9.30
2023-04-16T06:44:45.105Z,9.30
2023-04-16T06:47:12.112Z,9.20
2023-04-16T06:49:39.908Z,9.20
2023-04-16T06:52:07.240Z,9.10
2023-04-16T06:54:34.248Z,9.00
2023-04-16T06:57:01.325Z,8.90
2023-04-16T06:59:28.336Z,8.80
2023-04-16T07:01:55.434Z,8.80
2023-04-16T07:04:23.309Z,8.80
2023-04-16T07:06:50.320Z,8.90
2023-04-16T07:09:20.101Z,8.90
2023-04-16T07:11:47.290Z,8.90
2023-04-16T07:14:15.175Z,8.90
2023-04-16T07:16:42.230Z,8.90
2023-04-16T07:19:09.525Z,8.90
2023-04-16T07:21:36.757Z,9.00
2023-04-16T07:24:03.905Z,9.10
2023-04-16T07:26:31.132Z,9.10
2023-04-16T07:28:58.140Z,9.30
2023-04-16T07:31:25.208Z,9.20
2023-04-16T07:33:52.216Z,9.40
2023-04-16T07:36:19.293Z,9.40
2023-04-16T07:38:46.347Z,9.50
2023-04-16T07:41:13.696Z,9.50
2023-04-16T07:43:40.786Z,9.50
2023-04-16T07:46:07.980Z,9.50
2023-04-16T07:48:35.035Z,9.50
2023-04-16T07:51:02.234Z,9.50
2023-04-16T07:53:29.364Z,9.50
2023-04-16T07:55:56.415Z,9.50
2023-04-16T07:58:23.408Z,9.50
2023-04-16T08:00:51.382Z,9.50
2023-04-16T08:03:18.495Z,9.50
2023-04-16T08:05:45.853Z,9.50
2023-04-16T08:08:12.886Z,9.60
2023-04-16T08:10:40.039Z,9.60
2023-04-16T08:13:07.098Z,9.60
2023-04-16T08:15:34.142Z,9.70
2023-04-16T08:18:01.339Z,9.80
2023-04-16T08:20:28.431Z,9.80
2023-04-16T08:22:55.438Z,9.90
2023-04-16T08:25:24.650Z,9.90
2023-04-16T08:27:51.750Z,10.00
2023-04-16T08:30:18.989Z,10.00
2023-04-16T08:32:48.012Z,10.00
2023-04-16T08:35:16.657Z,10.10
2023-04-16T08:37:43.573Z,10.20
2023-04-16T08:40:11.233Z,10.20
2023-04-16T08:42:46.163Z,10.40
2023-04-16T08:45:19.692Z,10.50
2023-04-16T08:47:49.755Z,10.60
2023-04-16T08:50:22.848Z,10.70
2023-04-16T08:53:15.568Z,10.70
2023-04-16T08:55:50.429Z,10.80
2023-04-16T08:58:22.835Z,10.80
2023-04-16T09:00:50.497Z,10.90
2023-04-16T09:03:20.142Z,10.90
2023-04-16T09:05:48.235Z,11.10
2023-04-16T09:08:15.905Z,11.10
2023-04-16T09:10:43.714Z,11.20
2023-04-16T09:13:11.687Z,11.20
2023-04-16T09:15:40.664Z,11.30
2023-04-16T09:18:08.701Z,11.50
2023-04-16T09:20:36.041Z,11.50
2023-04-16T09:23:03.056Z,11.80
2023-04-16T09:25:38.573Z,11.90
2023-04-16T09:28:05.929Z,12.00
2023-04-16T09:30:34.835Z,12.10
2023-04-16T09:33:24.756Z,12.30
2023-04-16T09:35:53.209Z,12.40
2023-04-16T09:38:21.135Z,12.40
2023-04-16T09:40:48.248Z,12.60
2023-04-16T09:43:17.675Z,12.80
2023-04-16T09:45:53.158Z,12.60
2023-04-16T09:48:33.959Z,12.70
2023-04-16T09:51:01.961Z,12.90
2023-04-16T09:53:31.305Z,12.90
2023-04-16T09:56:06.129Z,13.00
2023-04-16T09:58:36.260Z,13.10
2023-04-16T10:01:03.767Z,13.30
2023-04-16T10:03:35.688Z,13.40
2023-04-16T10:06:21.977Z,13.60
2023-04-16T10:08:50.591Z,13.60
2023-04-16T10:11:19.792Z,13.80
2023-04-16T10:13:46.955Z,13.90
2023-04-16T10:16:14.206Z,14.00
2023-04-16T10:18:43.955Z,13.90
2023-04-16T10:21:12.724Z,14.00
2023-04-16T10:23:41.133Z,14.10
2023-04-16T10:26:08.433Z,14.10
2023-04-16T10:28:36.278Z,14.40
2023-04-16T10:31:09.194Z,14.60
2023-04-16T10:33:40.445Z,14.80
2023-04-16T10:36:14.377Z,14.90
2023-04-16T10:38:52.776Z,14.90
2023-04-16T10:41:22.956Z,15.10
2023-04-16T10:43:51.078Z,15.20
2023-04-16T10:46:33.259Z,15.20
2023-04-16T10:49:20.531Z,15.30
2023-04-16T10:52:02.180Z,15.30
2023-04-16T10:54:35.338Z,15.40
2023-04-16T10:57:08.859Z,15.30
2023-04-16T10:59:38.459Z,15.40
2023-04-16T11:02:19.417Z,15.70
2023-04-16T11:04:49.107Z,15.70
2023-04-16T11:07:21.483Z,15.80
2023-04-16T11:10:17.816Z,16.00
2023-04-16T11:12:47.375Z,15.80
2023-04-16T11:15:16.791Z,15.90
2023-04-16T11:17:45.318Z,16.00
2023-04-16T11:20:21.699Z,16.10
2023-04-16T11:22:53.826Z,16.10
2023-04-16T11:25:22.964Z,15.90
2023-04-16T11:27:52.058Z,15.90
2023-04-16T11:30:28.738Z,16.00
2023-04-16T11:32:56.142Z,16.10
2023-04-16T11:35:23.431Z,16.10
2023-04-16T11:37:50.392Z,16.10
2023-04-16T11:40:17.450Z,16.10
2023-04-16T11:42:44.559Z,16.10
2023-04-16T11:45:12.620Z,16.30
2023-04-16T11:47:57.191Z,16.30
2023-04-16T11:50:27.627Z,16.40
2023-04-16T11:52:57.697Z,16.50
2023-04-16T11:55:25.426Z,16.50
2023-04-16T11:57:52.777Z,16.40
2023-04-16T12:00:24.584Z,16.50
2023-04-16T12:02:55.052Z,16.40
2023-04-16T12:05:32.269Z,16.30
2023-04-16T12:08:01.839Z,16.40
2023-04-16T12:10:30.040Z,16.10
2023-04-16T12:13:17.307Z,16.30
2023-04-16T12:15:49.252Z,16.20
2023-04-16T12:18:22.918Z,16.10
2023-04-16T12:20:53.637Z,16.30
2023-04-16T12:23:30.141Z,16.40
2023-04-16T12:26:02.443Z,16.60
2023-04-16T12:28:36.604Z,16.50
2023-04-16T12:31:04.482Z,16.50
2023-04-16T12:33:31.972Z,16.80
2023-04-16T12:35:59.096Z,16.80
2023-04-16T12:38:27.032Z,16.90
2023-04-16T12:40:56.947Z,17.00
2023-04-16T12:43:25.159Z,17.10
2023-04-16T12:45:52.411Z,16.90
2023-04-16T12:48:19.493Z,16.60
2023-04-16T12:50:46.519Z,16.70
2023-04-16T12:53:13.539Z,16.70
2023-04-16T12:55:40.686Z,16.70
2023-04-16T12:58:09.917Z,16.30
2023-04-16T13:00:39.884Z,16.40
2023-04-16T13:03:06.949Z,16.60
2023-04-16T13:05:34.506Z,16.80
2023-04-16T13:08:02.139Z,16.50
2023-04-16T13:10:29.193Z,16.50
2023-04-16T13:12:56.431Z,16.30
2023-04-16T13:15:23.455Z,16.20
2023-04-16T13:17:50.645Z,16.00
2023-04-16T13:20:17.714Z,16.00
2023-04-16T13:22:44.724Z,16.30
2023-04-16T13:25:11.739Z,16.60
2023-04-16T13:27:38.873Z,16.70
2023-04-16T13:30:07.718Z,17.20
2023-04-16T13:32:34.901Z,17.30
2023-04-16T13:35:01.890Z,17.20
2023-04-16T13:37:28.823Z,17.00
2023-04-16T13:39:56.554Z,16.60
2023-04-16T13:42:23.794Z,16.70
2023-04-16T13:44:54.042Z,16.60
2023-04-16T13:47:21.291Z,16.30
2023-04-16T13:49:48.378Z,16.20
2023-04-16T13:52:15.466Z,15.90
2023-04-16T13:54:42.694Z,15.90
2023-04-16T13:57:19.847Z,16.00
2023-04-16T13:59:46.995Z,16.10
2023-04-16T14:02:14.263Z,15.90
2023-04-16T14:04:41.987Z,16.00
2023-04-16T14:07:09.079Z,15.90
2023-04-16T14:09:36.543Z,15.80
2023-04-16T14:12:03.854Z,15.70
2023-04-16T14:14:31.141Z,15.40
2023-04-16T14:16:59.512Z,15.50
2023-04-16T14:19:26.473Z,15.60
2023-04-16T14:21:54.371Z,15.50
2023-04-16T14:24:21.355Z,15.60
2023-04-16T14:26:48.448Z,15.50
2023-04-16T14:29:15.555Z,15.40
2023-04-16T14:31:42.588Z,15.50
2023-04-16T14:34:09.625Z,15.50
2023-04-16T14:36:36.989Z,15.50
2023-04-16T14:39:04.722Z,15.40
2023-04-16T14:41:31.756Z,15.10
2023-04-16T14:43:59.759Z,15.40
2023-04-16T14:46:27.102Z,15.30
2023-04-16T14:48:54.105Z,15.30
2023-04-16T14:51:21.109Z,15.10
2023-04-16T14:53:48.047Z,15.00
2023-04-16T14:56:15.062Z,15.10
2023-04-16T14:58:43.269Z,15.20
2023-04-16T15:01:10.457Z,15.00
2023-04-16T15:03:37.775Z,15.10
2023-04-16T15:06:05.872Z,14.90
2023-04-16T15:08:32.981Z,15.00
2023-04-16T15:10:59.997Z,14.90
2023-04-16T15:13:33.575Z,14.80
2023-04-16T15:16:07.469Z,14.90
2023-04-16T15:18:34.705Z,14.90
2023-04-16T15:21:01.941Z,14.80
2023-04-16T15:23:28.947Z,14.80
2023-04-16T15:25:55.921Z,14.80
2023-04-16T15:28:23.343Z,15.10
2023-04-16T15:30:52.072Z,15.10
2023-04-16T15:33:21.670Z,15.10
2023-04-16T15:35:48.758Z,15.10
2023-04-16T15:38:15.881Z,15.20
2023-04-16T15:40:42.923Z,15.30
2023-04-16T15:43:10.035Z,15.30
2023-04-16T15:45:37.503Z,15.20
2023-04-16T15:48:05.985Z,15.30
2023-04-16T15:50:33.587Z,15.40
2023-04-16T15:53:00.757Z,15.50
2023-04-16T15:55:27.787Z,15.50
2023-04-16T15:57:54.755Z,15.50
2023-04-16T16:00:21.818Z,15.40
2023-04-16T16:02:48.945Z,15.50
2023-04-16T16:05:16.812Z,15.50
2023-04-16T16:07:44.288Z,15.40
2023-04-16T16:10:13.112Z,15.50
2023-04-16T16:12:41.334Z,15.80
2023-04-16T16:15:10.957Z,15.80
2023-04-16T16:17:38.943Z,15.90
2023-04-16T16:20:10.239Z,16.10
2023-04-16T16:22:38.351Z,16.10
2023-04-16T16:25:07.037Z,16.10
2023-04-16T16:27:34.197Z,16.00
2023-04-16T16:30:01.490Z,15.80
2023-04-16T16:32:28.651Z,15.70
2023-04-16T16:34:56.043Z,15.60
2023-04-16T16:37:23.066Z,15.40
2023-04-16T16:39:50.498Z,15.20
2023-04-16T16:42:18.819Z,15.10
2023-04-16T16:44:47.437Z,15.00
2023-04-16T16:47:14.590Z,14.90
2023-04-16T16:49:41.678Z,15.10
2023-04-16T16:52:08.873Z,15.20
2023-04-16T16:54:35.816Z,15.40
2023-04-16T16:57:03.327Z,15.10
2023-04-16T16:59:30.518Z,15.00
2023-04-16T17:01:57.652Z,14.70
2023-04-16T17:04:24.735Z,14.50
2023-04-16T17:06:51.850Z,14.40
2023-04-16T17:09:19.157Z,14.20
2023-04-16T17:11:46.307Z,14.10
2023-04-16T17:14:13.292Z,13.90
2023-04-16T17:16:40.428Z,13.80
2023-04-16T17:19:07.462Z,13.70
2023-04-16T17:21:34.711Z,13.60
2023-04-16T17:24:01.810Z,13.30
2023-04-16T17:26:29.066Z,13.20
2023-04-16T17:28:57.829Z,13.00
2023-04-16T17:31:27.313Z,12.80
2023-04-16T17:33:54.420Z,12.70
2023-04-16T17:36:23.017Z,12.60
2023-04-16T17:38:50.591Z,12.60
2023-04-16T17:41:17.611Z,12.50
2023-04-16T17:43:49.532Z,12.40
2023-04-16T17:46:16.985Z,12.20
2023-04-16T17:48:44.215Z,12.10
2023-04-16T17:51:12.205Z,11.90
2023-04-16T17:53:39.314Z,11.80
2023-04-16T17:56:07.151Z,11.60
2023-04-16T17:58:35.343Z,11.50
2023-04-16T18:01:03.766Z,11.30
2023-04-16T18:03:32.895Z,11.00
2023-04-16T18:06:00.728Z,11.00
2023-04-16T18:08:28.701Z,10.90
2023-04-16T18:10:56.798Z,10.70
2023-04-16T18:13:24.592Z,10.70
2023-04-16T18:15:52.917Z,10.70
2023-04-16T18:18:21.260Z,10.70
2023-04-16T18:20:48.238Z,10.60
2023-04-16T18:23:15.332Z,10.50
2023-04-16T18:25:42.530Z,10.50
2023-04-16T18:28:09.647Z,10.50
2023-04-16T18:30:40.053Z,10.40
2023-04-16T18:33:34.439Z,10.30
2023-04-16T18:35:54.575Z,10.20
2023-04-16T18:38:21.526Z,10.20
2023-04-16T18:40:49.693Z,10.20
2023-04-16T18:43:16.950Z,10.10
2023-04-16T18:45:44.127Z,10.00
2023-04-16T18:48:11.430Z,10.00
2023-04-16T18:50:38.407Z,9.90
2023-04-16T18:53:05.369Z,9.80
2023-04-16T18:55:32.333Z,9.80
2023-04-16T18:57:59.316Z,9.90
2023-04-16T19:00:26.614Z,9.90
2023-04-16T19:02:53.840Z,9.80
2023-04-16T19:05:21.613Z,9.70
2023-04-16T19:07:48.791Z,9.60
2023-04-16T19:10:15.769Z,9.60
2023-04-16T19:12:42.955Z,9.50
2023-04-16T19:15:10.584Z,9.40
2023-04-16T19:17:39.577Z,9.30
2023-04-16T19:20:11.191Z,9.40
2023-04-16T19:22:38.630Z,9.30
2023-04-16T19:25:07.221Z,9.30
2023-04-16T19:27:34.875Z,9.30
2023-04-16T19:30:03.508Z,9.20
2023-04-16T19:32:31.035Z,9.20
2023-04-16T19:34:58.131Z,9.20
2023-04-16T19:37:25.239Z,9.10
2023-04-16T19:39:52.627Z,9.10
2023-04-16T19:42:19.718Z,9.00
2023-04-16T19:44:46.702Z,9.00
2023-04-16T19:47:13.927Z,9.00
2023-04-16T19:49:43.576Z,9.00
2023-04-16T19:52:10.658Z,8.90
2023-04-16T19:54:37.758Z,8.90
2023-04-16T19:57:04.828Z,8.90
2023-04-16T19:59:32.235Z,8.90
2023-04-16T20:01:59.359Z,8.80
2023-04-16T20:04:26.694Z,8.80
2023-04-16T20:06:53.817Z,8.70
2023-04-16T20:09:21.090Z,8.80
2023-04-16T20:11:48.233Z,8.70
2023-04-16T20:14:15.267Z,8.70
2023-04-16T20:16:43.623Z,8.60
2023-04-16T20:19:17.118Z,8.70
2023-04-16T20:21:45.511Z,8.70
2023-04-16T20:24:12.723Z,8.60
2023-04-16T20:26:39.768Z,8.60
2023-04-16T20:29:06.750Z,8.50
2023-04-16T20:31:33.825Z,8.50
2023-04-16T20:34:01.005Z,8.50
2023-04-16T20:36:28.790Z,8.50
2023-04-16T20:38:56.007Z,8.50
2023-04-16T20:41:25.157Z,8.50
2023-04-16T20:43:52.708Z,8.50
2023-04-16T20:46:24.182Z,8.50
2023-04-16T20:48:51.871Z,8.40
2023-04-16T20:51:19.036Z,8.40
2023-04-16T20:53:46.131Z,8.30
2023-04-16T20:56:14.924Z,8.30
2023-04-16T20:58:42.615Z,8.30
2023-04-16T21:01:09.884Z,8.30
2023-04-16T21:03:37.551Z,8.40
2023-04-16T21:06:04.781Z,8.40
2023-04-16T21:08:32.056Z,8.40
2023-04-16T21:10:59.224Z,8.30
2023-04-16T21:13:26.406Z,8.40
2023-04-16T21:15:53.724Z,8.40
2023-04-16T21:18:20.760Z,8.30
2023-04-16T21:20:47.787Z,8.30
2023-04-16T21:23:14.985Z,8.30
2023-04-16T21:25:42.125Z,8.30
2023-04-16T21:28:09.115Z,8.30
2023-04-16T21:30:36.789Z,8.30
2023-04-16T21:33:04.041Z,8.20
2023-04-16T21:35:33.168Z,8.20
2023-04-16T21:38:00.230Z,8.20
2023-04-16T21:40:27.334Z,8.30
2023-04-16T21:42:55.201Z,8.20
2023-04-16T21:45:22.422Z,8.20
2023-04-16T21:47:49.612Z,8.20
2023-04-16T21:50:16.798Z,8.20
2023-04-16T21:52:46.665Z,8.20
2023-04-16T21:55:16.938Z,8.20
2023-04-16T21:57:43.920Z,8.10
2023-04-16T22:00:14.940Z,8.20
2023-04-16T22:02:42.700Z,8.20
2023-04-16T22:05:11.296Z,8.20
2023-04-16T22:07:38.574Z,8.10
2023-04-16T22:10:06.780Z,8.10
2023-04-16T22:12:37.664Z,8.10
2023-04-16T22:15:07.154Z,8.20
2023-04-16T22:17:34.768Z,8.20
2023-04-16T22:20:04.751Z,8.20
2023-04-16T22:22:31.859Z,8.20
2023-04-16T22:24:59.120Z,8.20
2023-04-16T22:27:26.402Z,8.10
2023-04-16T22:29:53.519Z,8.20
2023-04-16T22:32:20.854Z,8.20
2023-04-16T22:34:48.017Z,8.20
2023-04-16T22:37:14.933Z,8.20
2023-04-16T22:39:42.042Z,8.20
2023-04-16T22:42:09.136Z,8.20
2023-04-16T22:44:39.084Z,8.20
2023-04-16T22:47:06.095Z,8.30
2023-04-16T22:49:33.199Z,8.20
2023-04-16T22:52:00.864Z,8.20
2023-04-16T22:54:29.750Z,8.20
2023-04-16T22:56:57.524Z,8.20
2023-04-16T22:59:25.007Z,8.20
2023-04-16T23:01:52.503Z,8.10
2023-04-16T23:04:19.938Z,8.10
2023-04-16T23:06:47.015Z,8.20
2023-04-16T23:09:14.322Z,8.10
2023-04-16T23:11:41.636Z,8.10
2023-04-16T23:14:09.662Z,8.10
2023-04-16T23:16:36.582Z,8.10
2023-04-16T23:19:03.822Z,8.10
2023-04-16T23:21:31.257Z,8.20
2023-04-16T23:23:59.077Z,8.10
2023-04-16T23:26:26.055Z,8.10
2023-04-16T23:28:53.076Z,8.20
2023-04-16T23:31:20.201Z,8.20
2023-04-16T23:33:47.150Z,8.10
2023-04-16T23:36:14.129Z,8.10
2023-04-16T23:38:41.224Z,8.10
2023-04-16T23:41:08.190Z,8.10
2023-04-16T23:43:35.855Z,8.10
2023-04-16T23:46:03.230Z,8.00
2023-04-16T23:48:30.533Z,8.10
2023-04-16T23:50:57.586Z,8.10
2023-04-16T23:53:24.761Z,8.10
2023-04-16T23:55:52.002Z,8.10
2023-04-16T23:58:19.084Z,8.10
